createdAt,value
2018-05-16T00:00:21.041Z,13.4
2018-05-16T00:01:23.041Z,13.4
2018-05-16T00:02:25.052Z,13.4
2018-05-16T00:03:27.050Z,13.4
2018-05-16T00:04:29.057Z,13.3
2018-05-16T00:05:31.047Z,13.3
2018-05-16T00:06:33.105Z,13.4
2018-05-16T00:07:35.095Z,13.3
2018-05-16T00:08:37.487Z,13.3
2018-05-16T00:09:39.474Z,13.3
2018-05-16T00:10:41.474Z,13.3
2018-05-16T00:11:43.466Z,13.3
2018-05-16T00:12:45.471Z,13.3
2018-05-16T00:13:48.047Z,13.3
2018-05-16T00:14:50.749Z,13.3
2018-05-16T00:15:52.741Z,13.3
2018-05-16T00:16:54.818Z,13.3
2018-05-16T00:17:56.805Z,13.3
2018-05-16T00:18:59.200Z,13.3
2018-05-16T00:20:01.196Z,13.3
2018-05-16T00:21:03.578Z,13.3
2018-05-16T00:22:05.602Z,13.3
2018-05-16T00:23:07.727Z,13.3
2018-05-16T00:24:09.722Z,13.3
2018-05-16T00:25:11.717Z,13.3
2018-05-16T00:26:13.697Z,13.3
2018-05-16T00:27:15.707Z,13.4
2018-05-16T00:28:17.699Z,13.4
2018-05-16T00:29:19.761Z,13.4
2018-05-16T00:30:21.743Z,13.4
2018-05-16T00:31:23.735Z,13.4
2018-05-16T00:32:26.011Z,13.4
2018-05-16T00:33:28.058Z,13.4
2018-05-16T00:34:30.053Z,13.4
2018-05-16T00:35:32.039Z,13.4
2018-05-16T00:36:34.434Z,13.4
2018-05-16T00:37:36.433Z,13.4
2018-05-16T00:38:38.426Z,13.5
2018-05-16T00:39:40.430Z,13.5
2018-05-16T00:40:42.430Z,13.5
2018-05-16T00:41:44.418Z,13.5
2018-05-16T00:42:46.414Z,13.5
2018-05-16T00:43:48.428Z,13.6
2018-05-16T00:44:50.428Z,13.6
2018-05-16T00:45:52.429Z,13.6
2018-05-16T00:46:54.778Z,13.6
2018-05-16T00:47:56.914Z,13.7
2018-05-16T00:48:58.925Z,13.7
2018-05-16T00:50:00.927Z,13.8
2018-05-16T00:51:03.299Z,13.8
2018-05-16T00:52:05.336Z,13.8
2018-05-16T00:53:07.334Z,13.9
2018-05-16T00:54:09.327Z,14.1
2018-05-16T00:55:11.456Z,14
2018-05-16T00:56:13.455Z,14.1
2018-05-16T00:57:15.458Z,14.1
2018-05-16T00:58:17.833Z,14.1
2018-05-16T00:59:19.915Z,14.1
2018-05-16T01:00:21.899Z,14.1
2018-05-16T01:01:23.892Z,14.1
2018-05-16T01:02:25.888Z,14.1
2018-05-16T01:03:28.283Z,14.1
2018-05-16T01:04:30.282Z,14.1
2018-05-16T01:05:32.935Z,14.2
2018-05-16T01:06:34.945Z,14.2
2018-05-16T01:07:36.979Z,14.2
2018-05-16T01:08:39.059Z,14.2
2018-05-16T01:09:41.061Z,14.2
2018-05-16T01:10:43.060Z,14.2
2018-05-16T01:11:45.069Z,14.2
2018-05-16T01:12:47.203Z,14.3
2018-05-16T01:13:49.209Z,14.3
2018-05-16T01:14:51.496Z,14.3
2018-05-16T01:15:53.481Z,14.3
2018-05-16T01:16:55.704Z,14.3
2018-05-16T01:17:57.704Z,14.3
2018-05-16T01:18:59.699Z,14.3
2018-05-16T01:20:01.979Z,14.3
2018-05-16T01:21:04.512Z,14.3
2018-05-16T01:22:06.816Z,14.3
2018-05-16T01:23:08.878Z,14.3
2018-05-16T01:24:11.167Z,14.4
2018-05-16T01:25:13.173Z,14.4
2018-05-16T01:26:15.168Z,14.4
2018-05-16T01:27:17.605Z,14.4
2018-05-16T01:28:19.777Z,14.4
2018-05-16T01:29:21.776Z,14.4
2018-05-16T01:30:24.085Z,14.4
2018-05-16T01:31:26.095Z,14.4
2018-05-16T01:32:28.106Z,14.4
2018-05-16T01:33:30.113Z,14.4
2018-05-16T01:34:32.393Z,14.3
2018-05-16T01:35:34.384Z,14.3
2018-05-16T01:36:36.389Z,14.3
2018-05-16T01:37:38.845Z,14.3
2018-05-16T01:38:41.020Z,14.3
2018-05-16T01:39:43.012Z,14.2
2018-05-16T01:40:45.002Z,14.2
2018-05-16T01:41:47.277Z,14.2
2018-05-16T01:42:49.275Z,14.2
2018-05-16T01:43:51.835Z,14.2
2018-05-16T01:44:53.823Z,14.2
2018-05-16T01:45:56.117Z,14.2
2018-05-16T01:46:58.115Z,14.1
2018-05-16T01:48:00.112Z,14.1
2018-05-16T01:49:02.393Z,14.1
2018-05-16T01:50:04.663Z,14.1
2018-05-16T01:51:07.264Z,14.1
2018-05-16T01:52:09.264Z,14.1
2018-05-16T01:53:11.259Z,14.1
2018-05-16T01:54:13.269Z,14
2018-05-16T01:55:15.263Z,14
2018-05-16T01:56:17.249Z,14
2018-05-16T01:57:19.258Z,14
2018-05-16T01:58:21.268Z,14
2018-05-16T01:59:23.941Z,14
2018-05-16T02:00:25.942Z,14
2018-05-16T02:01:28.338Z,14
2018-05-16T02:02:30.333Z,14
2018-05-16T02:03:32.327Z,14
2018-05-16T02:04:34.319Z,14
2018-05-16T02:05:36.332Z,13.9
2018-05-16T02:06:38.310Z,14
2018-05-16T02:07:40.590Z,13.9
2018-05-16T02:08:42.588Z,13.9
2018-05-16T02:09:44.629Z,13.9
2018-05-16T02:10:46.906Z,13.9
2018-05-16T02:11:49.283Z,13.9
2018-05-16T02:12:51.293Z,13.9
2018-05-16T02:13:53.573Z,13.9
2018-05-16T02:14:55.569Z,14
2018-05-16T02:15:57.847Z,14
2018-05-16T02:16:59.836Z,14
2018-05-16T02:18:01.839Z,14
2018-05-16T02:19:03.840Z,14
2018-05-16T02:20:05.836Z,13.9
2018-05-16T02:21:08.172Z,13.9
2018-05-16T02:22:10.189Z,13.9
2018-05-16T02:23:12.183Z,13.9
2018-05-16T02:24:14.181Z,13.9
2018-05-16T02:25:16.170Z,14
2018-05-16T02:26:18.172Z,14
2018-05-16T02:27:20.164Z,14
2018-05-16T02:28:22.165Z,14
2018-05-16T02:29:24.154Z,13.9
2018-05-16T02:30:26.161Z,13.9
2018-05-16T02:31:28.150Z,13.9
2018-05-16T02:32:30.456Z,13.8
2018-05-16T02:33:32.760Z,13.8
2018-05-16T02:34:34.763Z,13.8
2018-05-16T02:35:36.769Z,13.8
2018-05-16T02:36:38.765Z,13.9
2018-05-16T02:37:41.049Z,13.9
2018-05-16T02:38:43.061Z,13.9
2018-05-16T02:39:45.042Z,13.9
2018-05-16T02:40:47.627Z,13.9
2018-05-16T02:41:49.610Z,13.8
2018-05-16T02:42:51.610Z,13.9
2018-05-16T02:43:53.893Z,13.9
2018-05-16T02:44:55.894Z,13.9
2018-05-16T02:45:57.891Z,13.9
2018-05-16T02:46:59.883Z,13.9
2018-05-16T02:48:01.895Z,13.9
2018-05-16T02:49:04.217Z,13.9
2018-05-16T02:50:06.216Z,13.9
2018-05-16T02:51:08.504Z,13.9
2018-05-16T02:52:10.502Z,13.9
2018-05-16T02:53:12.511Z,13.9
2018-05-16T02:54:14.498Z,13.9
2018-05-16T02:55:16.490Z,13.9
2018-05-16T02:56:18.486Z,13.9
2018-05-16T02:57:21.069Z,13.9
2018-05-16T02:58:23.066Z,13.9
2018-05-16T02:59:25.727Z,13.9
2018-05-16T03:00:28.289Z,13.8
2018-05-16T03:01:30.281Z,13.8
2018-05-16T03:02:32.290Z,13.7
2018-05-16T03:03:34.855Z,13.7
2018-05-16T03:04:37.516Z,13.7
2018-05-16T03:05:39.521Z,13.7
2018-05-16T03:06:41.525Z,13.7
2018-05-16T03:07:43.805Z,13.6
2018-05-16T03:08:46.091Z,13.7
2018-05-16T03:09:48.777Z,13.7
2018-05-16T03:10:50.778Z,13.7
2018-05-16T03:11:53.053Z,13.6
2018-05-16T03:12:55.336Z,13.6
2018-05-16T03:13:57.349Z,13.6
2018-05-16T03:14:59.346Z,13.6
2018-05-16T03:16:01.350Z,13.6
2018-05-16T03:17:03.627Z,13.5
2018-05-16T03:18:05.994Z,13.6
2018-05-16T03:19:07.918Z,13.6
2018-05-16T03:20:09.908Z,13.6
2018-05-16T03:21:11.913Z,13.6
2018-05-16T03:22:13.903Z,13.6
2018-05-16T03:23:15.882Z,13.6
2018-05-16T03:24:17.880Z,13.6
2018-05-16T03:25:19.880Z,13.6
2018-05-16T03:26:21.873Z,13.7
2018-05-16T03:27:23.876Z,13.6
2018-05-16T03:28:26.251Z,13.6
2018-05-16T03:29:28.265Z,13.6
2018-05-16T03:30:30.927Z,13.6
2018-05-16T03:31:33.228Z,13.6
2018-05-16T03:32:35.507Z,13.6
2018-05-16T03:33:37.502Z,13.6
2018-05-16T03:34:39.500Z,13.6
2018-05-16T03:35:41.491Z,13.6
2018-05-16T03:36:43.498Z,13.7
2018-05-16T03:37:45.762Z,13.7
2018-05-16T03:38:47.759Z,13.8
2018-05-16T03:39:49.760Z,13.8
2018-05-16T03:40:51.756Z,13.8
2018-05-16T03:41:53.758Z,13.8
2018-05-16T03:42:55.758Z,13.8
2018-05-16T03:43:57.747Z,13.8
2018-05-16T03:44:59.750Z,13.8
2018-05-16T03:46:01.731Z,13.8
2018-05-16T03:47:04.297Z,13.8
2018-05-16T03:48:06.290Z,13.8
2018-05-16T03:49:08.289Z,13.8
2018-05-16T03:50:10.288Z,13.8
2018-05-16T03:51:12.283Z,13.8
2018-05-16T03:52:14.287Z,13.8
2018-05-16T03:53:16.291Z,13.8
2018-05-16T03:54:18.295Z,13.8
2018-05-16T03:55:20.294Z,13.8
2018-05-16T03:56:22.286Z,13.8
2018-05-16T03:57:24.294Z,13.9
2018-05-16T03:58:26.288Z,13.9
2018-05-16T03:59:28.575Z,13.9
2018-05-16T04:00:30.567Z,13.9
2018-05-16T04:01:32.953Z,13.9
2018-05-16T04:02:34.939Z,13.9
2018-05-16T04:03:37.226Z,13.9
2018-05-16T04:04:39.523Z,13.9
2018-05-16T04:05:41.525Z,13.9
2018-05-16T04:06:43.522Z,13.9
2018-05-16T04:07:45.518Z,13.9
2018-05-16T04:08:47.518Z,13.9
2018-05-16T04:09:49.518Z,13.9
2018-05-16T04:10:51.819Z,13.9
2018-05-16T04:11:53.826Z,14
2018-05-16T04:12:55.809Z,14
2018-05-16T04:13:57.813Z,14
2018-05-16T04:14:59.803Z,14
2018-05-16T04:16:01.800Z,14
2018-05-16T04:17:03.794Z,14
2018-05-16T04:18:05.777Z,14
2018-05-16T04:19:08.061Z,14
2018-05-16T04:20:10.064Z,14
2018-05-16T04:21:12.061Z,14
2018-05-16T04:22:14.063Z,14
2018-05-16T04:23:16.055Z,14.1
2018-05-16T04:24:18.057Z,14.1
2018-05-16T04:25:20.041Z,14.1
2018-05-16T04:26:22.052Z,14.1
2018-05-16T04:27:24.448Z,14.1
2018-05-16T04:28:26.436Z,14.2
2018-05-16T04:29:28.434Z,14.2
2018-05-16T04:30:30.437Z,14.1
2018-05-16T04:31:32.437Z,14.2
2018-05-16T04:32:34.441Z,14.2
2018-05-16T04:33:37.462Z,14.2
2018-05-16T04:34:39.462Z,14.2
2018-05-16T04:35:41.458Z,14.2
2018-05-16T04:36:43.445Z,14.2
2018-05-16T04:37:45.735Z,14.2
2018-05-16T04:38:47.741Z,14.2
2018-05-16T04:39:49.735Z,14.2
2018-05-16T04:40:51.739Z,14.2
2018-05-16T04:41:53.728Z,14.2
2018-05-16T04:42:55.726Z,14.2
2018-05-16T04:43:57.714Z,14.2
2018-05-16T04:45:00.095Z,14.3
2018-05-16T04:46:02.108Z,14.3
2018-05-16T04:47:04.099Z,14.3
2018-05-16T04:48:06.482Z,14.3
2018-05-16T04:49:08.479Z,14.3
2018-05-16T04:50:10.850Z,14.3
2018-05-16T04:51:12.857Z,14.3
2018-05-16T04:52:15.232Z,14.3
2018-05-16T04:53:17.232Z,14.3
2018-05-16T04:54:19.539Z,14.4
2018-05-16T04:55:21.532Z,14.4
2018-05-16T04:56:23.530Z,14.3
2018-05-16T04:57:25.528Z,14.4
2018-05-16T04:58:27.524Z,14.4
2018-05-16T04:59:29.523Z,14.5
2018-05-16T05:00:31.535Z,14.5
2018-05-16T05:01:33.533Z,14.5
2018-05-16T05:02:35.909Z,14.5
2018-05-16T05:03:37.906Z,14.5
2018-05-16T05:04:39.895Z,14.5
2018-05-16T05:05:41.895Z,14.5
2018-05-16T05:06:43.894Z,14.6
2018-05-16T05:07:45.904Z,14.5
2018-05-16T05:08:48.367Z,14.6
2018-05-16T05:09:50.730Z,14.6
2018-05-16T05:10:52.725Z,14.6
2018-05-16T05:11:54.719Z,14.6
2018-05-16T05:12:56.719Z,14.7
2018-05-16T05:13:58.711Z,14.7
2018-05-16T05:15:00.713Z,14.7
2018-05-16T05:16:02.715Z,14.6
2018-05-16T05:17:04.707Z,14.7
2018-05-16T05:18:06.721Z,14.7
2018-05-16T05:19:08.717Z,14.8
2018-05-16T05:20:10.717Z,14.8
2018-05-16T05:21:12.710Z,14.8
2018-05-16T05:22:14.701Z,14.8
2018-05-16T05:23:16.714Z,14.8
2018-05-16T05:24:18.708Z,14.8
2018-05-16T05:25:20.707Z,14.9
2018-05-16T05:26:22.723Z,14.9
2018-05-16T05:27:24.719Z,14.9
2018-05-16T05:28:26.711Z,14.9
2018-05-16T05:29:29.096Z,14.9
2018-05-16T05:30:31.093Z,14.9
2018-05-16T05:31:33.789Z,15
2018-05-16T05:32:35.779Z,15.1
2018-05-16T05:33:37.771Z,15.1
2018-05-16T05:34:40.066Z,15.1
2018-05-16T05:35:42.064Z,15.1
2018-05-16T05:36:44.452Z,15.1
2018-05-16T05:37:46.749Z,15
2018-05-16T05:38:48.754Z,15.1
2018-05-16T05:39:50.758Z,15.2
2018-05-16T05:40:52.747Z,15.2
2018-05-16T05:41:54.751Z,15.2
2018-05-16T05:42:56.746Z,15.3
2018-05-16T05:43:59.038Z,15.3
2018-05-16T05:45:01.038Z,15.3
2018-05-16T05:46:03.038Z,15.3
2018-05-16T05:47:05.038Z,15.3
2018-05-16T05:48:07.327Z,15.4
2018-05-16T05:49:09.777Z,15.4
2018-05-16T05:50:12.360Z,15.4
2018-05-16T05:51:14.356Z,15.5
2018-05-16T05:52:16.665Z,15.5
2018-05-16T05:53:18.662Z,15.6
2018-05-16T05:54:20.669Z,15.6
2018-05-16T05:55:22.953Z,15.6
2018-05-16T05:56:24.944Z,15.6
2018-05-16T05:57:26.947Z,15.6
2018-05-16T05:58:28.956Z,15.7
2018-05-16T05:59:30.942Z,15.7
2018-05-16T06:00:32.948Z,15.6
2018-05-16T06:01:34.948Z,15.7
2018-05-16T06:02:36.951Z,15.7
2018-05-16T06:03:38.951Z,15.7
2018-05-16T06:04:41.237Z,15.7
2018-05-16T06:05:43.518Z,15.8
2018-05-16T06:06:45.527Z,15.8
2018-05-16T06:07:47.519Z,15.9
2018-05-16T06:08:49.516Z,15.9
2018-05-16T06:09:51.510Z,15.8
2018-05-16T06:10:53.509Z,15.9
2018-05-16T06:11:55.801Z,15.9
2018-05-16T06:12:57.807Z,15.9
2018-05-16T06:13:59.800Z,15.9
2018-05-16T06:15:01.800Z,16
2018-05-16T06:16:03.815Z,16
2018-05-16T06:17:05.806Z,16
2018-05-16T06:18:08.107Z,16.1
2018-05-16T06:19:10.106Z,16.2
2018-05-16T06:20:12.109Z,16.2
2018-05-16T06:21:14.100Z,16.1
2018-05-16T06:22:16.092Z,16.2
2018-05-16T06:23:18.100Z,16.1
2018-05-16T06:24:20.092Z,16.2
2018-05-16T06:25:22.289Z,16.2
2018-05-16T06:26:24.296Z,16.2
2018-05-16T06:27:26.394Z,16.4
2018-05-16T06:28:28.288Z,16.4
2018-05-16T06:29:30.291Z,16.4
2018-05-16T06:30:32.299Z,16.5
2018-05-16T06:31:34.580Z,16.5
2018-05-16T06:32:36.638Z,16.4
2018-05-16T06:33:38.573Z,16.5
2018-05-16T06:34:40.571Z,16.6
2018-05-16T06:35:42.568Z,16.6
2018-05-16T06:36:44.958Z,16.7
2018-05-16T06:37:46.955Z,16.9
2018-05-16T06:38:48.960Z,16.8
2018-05-16T06:39:50.947Z,16.8
2018-05-16T06:40:52.946Z,16.8
2018-05-16T06:41:54.946Z,16.8
2018-05-16T06:42:56.953Z,16.7
2018-05-16T06:43:58.955Z,16.7
2018-05-16T06:45:00.953Z,16.8
2018-05-16T06:46:02.967Z,16.8
2018-05-16T06:47:05.362Z,16.8
2018-05-16T06:48:07.632Z,16.9
2018-05-16T06:49:09.635Z,16.9
2018-05-16T06:50:11.916Z,17
2018-05-16T06:51:13.921Z,16.9
2018-05-16T06:52:15.923Z,16.9
2018-05-16T06:53:17.925Z,16.9
2018-05-16T06:54:19.931Z,16.9
2018-05-16T06:55:21.937Z,17
2018-05-16T06:56:23.944Z,17
2018-05-16T06:57:25.944Z,17.3
2018-05-16T06:58:28.329Z,17.2
2018-05-16T06:59:30.621Z,17.2
2018-05-16T07:00:32.902Z,17.3
2018-05-16T07:01:34.896Z,17.3
2018-05-16T07:02:36.905Z,17.4
2018-05-16T07:03:38.909Z,17.3
2018-05-16T07:04:40.905Z,17.4
2018-05-16T07:05:42.916Z,17.2
2018-05-16T07:06:45.203Z,17.1
2018-05-16T07:07:47.200Z,17.2
2018-05-16T07:08:49.215Z,17.3
2018-05-16T07:09:51.502Z,17.4
2018-05-16T07:10:53.513Z,17.4
2018-05-16T07:11:55.508Z,17.3
2018-05-16T07:12:57.508Z,17.3
2018-05-16T07:13:59.519Z,17.4
2018-05-16T07:15:01.526Z,17.4
2018-05-16T07:16:03.535Z,17.3
2018-05-16T07:17:05.538Z,17.4
2018-05-16T07:18:07.544Z,17.4
2018-05-16T07:19:09.561Z,17.3
2018-05-16T07:20:11.563Z,17.3
2018-05-16T07:21:13.573Z,17.3
2018-05-16T07:22:15.606Z,17.2
2018-05-16T07:23:18.275Z,17.1
2018-05-16T07:24:20.311Z,17.2
2018-05-16T07:25:22.317Z,17.2
2018-05-16T07:26:24.316Z,17.2
2018-05-16T07:27:26.320Z,17.2
2018-05-16T07:28:28.617Z,17.2
2018-05-16T07:29:30.616Z,17.2
2018-05-16T07:30:32.998Z,17.3
2018-05-16T07:31:35.017Z,17.3
2018-05-16T07:32:37.023Z,17.4
2018-05-16T07:33:39.080Z,17.3
2018-05-16T07:34:41.091Z,17.3
2018-05-16T07:35:43.090Z,17.3
2018-05-16T07:36:45.097Z,17.4
2018-05-16T07:37:47.149Z,17.4
2018-05-16T07:38:49.453Z,17.4
2018-05-16T07:39:51.460Z,17.5
2018-05-16T07:40:53.774Z,17.5
2018-05-16T07:41:55.783Z,17.5
2018-05-16T07:42:57.792Z,17.5
2018-05-16T07:43:59.789Z,17.5
2018-05-16T07:45:01.799Z,17.5
2018-05-16T07:46:03.807Z,17.6
2018-05-16T07:47:05.832Z,17.5
2018-05-16T07:48:07.815Z,17.6
2018-05-16T07:49:09.831Z,17.7
2018-05-16T07:50:11.840Z,17.8
2018-05-16T07:51:14.238Z,17.9
2018-05-16T07:52:16.221Z,18
2018-05-16T07:53:18.256Z,18
2018-05-16T07:54:20.249Z,18.1
2018-05-16T07:55:22.251Z,18.1
2018-05-16T07:56:24.256Z,18.1
2018-05-16T07:57:26.257Z,18.3
2018-05-16T07:58:28.548Z,18.4
2018-05-16T07:59:30.549Z,18.4
2018-05-16T08:00:32.543Z,18.4
2018-05-16T08:01:34.549Z,18.4
2018-05-16T08:02:36.566Z,18.5
2018-05-16T08:03:38.569Z,18.5
2018-05-16T08:04:40.944Z,18.8
2018-05-16T08:05:42.956Z,18.8
2018-05-16T08:06:44.955Z,18.8
2018-05-16T08:07:46.962Z,19
2018-05-16T08:08:48.977Z,19
2018-05-16T08:09:51.357Z,18.8
2018-05-16T08:10:53.371Z,18.9
2018-05-16T08:11:55.749Z,19
2018-05-16T08:12:57.756Z,19.1
2018-05-16T08:13:59.774Z,19.3
2018-05-16T08:15:01.780Z,19.4
2018-05-16T08:16:03.791Z,19.6
2018-05-16T08:17:05.793Z,19.5
2018-05-16T08:18:07.801Z,19.5
2018-05-16T08:19:09.800Z,19.3
2018-05-16T08:20:11.800Z,19.4
2018-05-16T08:21:14.194Z,19.4
2018-05-16T08:22:16.590Z,19.4
2018-05-16T08:23:18.973Z,19.3
2018-05-16T08:24:20.973Z,19.2
2018-05-16T08:25:22.978Z,19.1
2018-05-16T08:26:24.984Z,19
2018-05-16T08:27:27.275Z,19.1
2018-05-16T08:28:29.279Z,19.1
2018-05-16T08:29:31.281Z,19.1
2018-05-16T08:30:33.290Z,19
2018-05-16T08:31:35.587Z,19
2018-05-16T08:32:37.591Z,19.1
2018-05-16T08:33:39.905Z,18.9
2018-05-16T08:34:41.914Z,19
2018-05-16T08:35:43.909Z,19.2
2018-05-16T08:36:45.920Z,19.1
2018-05-16T08:37:47.923Z,19.2
2018-05-16T08:38:49.927Z,19.2
2018-05-16T08:39:51.982Z,19.2
2018-05-16T08:40:53.934Z,19.2
2018-05-16T08:41:55.934Z,19.1
2018-05-16T08:42:58.807Z,19
2018-05-16T08:44:01.064Z,19.1
2018-05-16T08:45:03.744Z,19.1
2018-05-16T08:46:05.754Z,19.1
2018-05-16T08:47:07.755Z,19.1
2018-05-16T08:48:09.759Z,19.1
2018-05-16T08:49:11.778Z,19.2
2018-05-16T08:50:13.789Z,19.2
2018-05-16T08:51:15.796Z,19.3
2018-05-16T08:52:18.088Z,19.3
2018-05-16T08:53:20.404Z,19.5
2018-05-16T08:54:22.401Z,19.5
2018-05-16T08:55:24.410Z,19.6
2018-05-16T08:56:26.428Z,19.6
2018-05-16T08:57:28.440Z,19.7
2018-05-16T08:58:30.453Z,20
2018-05-16T08:59:32.477Z,20.2
2018-05-16T09:00:34.477Z,20.2
2018-05-16T09:01:36.491Z,20.4
2018-05-16T09:02:38.782Z,20.6
2018-05-16T09:03:40.785Z,20.7
2018-05-16T09:04:42.803Z,21
2018-05-16T09:05:44.938Z,20.7
2018-05-16T09:06:46.970Z,20.8
2018-05-16T09:07:49.204Z,20.8
2018-05-16T09:08:51.203Z,20.5
2018-05-16T09:09:53.216Z,20.5
2018-05-16T09:10:55.228Z,20.9
2018-05-16T09:11:57.253Z,21.1
2018-05-16T09:12:59.270Z,21.3
2018-05-16T09:14:01.285Z,21.1
2018-05-16T09:15:03.307Z,21.2
2018-05-16T09:16:05.339Z,21.4
2018-05-16T09:17:07.350Z,21.5
2018-05-16T09:18:09.351Z,21.9
2018-05-16T09:19:11.641Z,22
2018-05-16T09:20:14.215Z,21.8
2018-05-16T09:21:16.231Z,21.8
2018-05-16T09:22:20.711Z,21.8
2018-05-16T09:23:22.825Z,21.9
2018-05-16T09:24:25.038Z,21.8
2018-05-16T09:25:27.558Z,21.9
2018-05-16T09:26:29.574Z,22.2
2018-05-16T09:27:31.625Z,22
2018-05-16T09:28:34.310Z,22.1
2018-05-16T09:29:36.503Z,22.2
2018-05-16T09:30:38.697Z,22.3
2018-05-16T09:31:40.716Z,22.1
2018-05-16T09:32:43.160Z,22.3
2018-05-16T09:33:45.207Z,22.4
2018-05-16T09:34:47.673Z,22.7
2018-05-16T09:35:49.745Z,22.9
2018-05-16T09:36:52.385Z,22.4
2018-05-16T09:37:54.841Z,22.5
2018-05-16T09:38:57.605Z,22.5
2018-05-16T09:39:59.902Z,22.4
2018-05-16T09:41:01.930Z,22.3
2018-05-16T09:42:04.450Z,22.3
2018-05-16T09:43:06.466Z,22.7
2018-05-16T09:44:08.714Z,22.5
2018-05-16T09:45:10.736Z,22.7
2018-05-16T09:46:13.790Z,22.8
2018-05-16T09:47:16.092Z,22.6
2018-05-16T09:48:18.766Z,22.4
2018-05-16T09:49:20.780Z,22.4
2018-05-16T09:50:22.811Z,22.4
2018-05-16T09:51:25.257Z,22.4
2018-05-16T09:52:27.298Z,22.1
2018-05-16T09:53:30.399Z,22
2018-05-16T09:54:32.543Z,21.8
2018-05-16T09:55:35.175Z,21.8
2018-05-16T09:56:37.197Z,21.6
2018-05-16T09:57:41.120Z,21.6
2018-05-16T09:58:43.593Z,21.8
2018-05-16T09:59:45.929Z,21.5
2018-05-16T10:00:47.943Z,21.3
2018-05-16T10:01:50.004Z,21.5
2018-05-16T10:02:52.066Z,21.6
2018-05-16T10:03:54.368Z,21.5
2018-05-16T10:04:56.387Z,21.6
2018-05-16T10:05:58.390Z,21.6
2018-05-16T10:07:01.228Z,21.8
2018-05-16T10:08:04.104Z,21.9
2018-05-16T10:09:06.193Z,21.7
2018-05-16T10:10:08.197Z,22
2018-05-16T10:11:11.119Z,21.9
2018-05-16T10:12:13.135Z,21.8
2018-05-16T10:13:15.225Z,21.7
2018-05-16T10:14:18.007Z,21.7
2018-05-16T10:15:20.050Z,21.5
2018-05-16T10:16:22.973Z,21.7
2018-05-16T10:17:25.056Z,21.8
2018-05-16T10:18:27.254Z,22.1
2018-05-16T10:19:29.263Z,22
2018-05-16T10:20:31.492Z,22
2018-05-16T10:21:33.517Z,22.1
2018-05-16T10:22:35.522Z,22.4
2018-05-16T10:23:38.022Z,22.3
2018-05-16T10:24:40.392Z,22.3
2018-05-16T10:25:42.497Z,22.4
2018-05-16T10:26:44.564Z,22.5
2018-05-16T10:27:46.636Z,22.4
2018-05-16T10:28:49.066Z,22.3
2018-05-16T10:29:51.174Z,22.2
2018-05-16T10:30:53.687Z,22
2018-05-16T10:31:55.933Z,22
2018-05-16T10:32:58.841Z,22
2018-05-16T10:34:00.853Z,22
2018-05-16T10:35:03.646Z,21.8
2018-05-16T10:36:06.050Z,21.7
2018-05-16T10:37:08.109Z,21.6
2018-05-16T10:38:10.329Z,21.8
2018-05-16T10:39:12.661Z,21.9
2018-05-16T10:40:15.203Z,21.7
2018-05-16T10:41:17.265Z,21.7
2018-05-16T10:42:19.416Z,21.6
2018-05-16T10:43:21.443Z,21.8
2018-05-16T10:44:23.748Z,21.5
2018-05-16T10:45:25.756Z,21.9
2018-05-16T10:46:27.778Z,22.1
2018-05-16T10:47:29.783Z,22.1
2018-05-16T10:48:31.802Z,22
2018-05-16T10:49:34.125Z,21.8
2018-05-16T10:50:36.102Z,22.2
2018-05-16T10:51:38.401Z,22.7
2018-05-16T10:52:40.420Z,22.5
2018-05-16T10:53:42.711Z,22.3
2018-05-16T10:54:44.719Z,22.2
2018-05-16T10:55:46.750Z,22.4
2018-05-16T10:56:49.338Z,22.2
2018-05-16T10:57:51.349Z,22.1
2018-05-16T10:58:53.364Z,22
2018-05-16T10:59:55.366Z,21.9
2018-05-16T11:00:57.392Z,21.9
2018-05-16T11:01:59.403Z,22.2
2018-05-16T11:03:01.726Z,22.1
2018-05-16T11:04:03.733Z,21.9
2018-05-16T11:05:05.741Z,21.8
2018-05-16T11:06:08.033Z,21.9
2018-05-16T11:07:10.428Z,22.1
2018-05-16T11:08:12.718Z,22.5
2018-05-16T11:09:14.721Z,22.3
2018-05-16T11:10:16.720Z,22.4
2018-05-16T11:11:18.729Z,22.6
2018-05-16T11:12:20.750Z,23
2018-05-16T11:13:23.070Z,23
2018-05-16T11:14:25.075Z,23.2
2018-05-16T11:15:27.748Z,22.9
2018-05-16T11:16:29.769Z,22.7
2018-05-16T11:17:31.776Z,22.5
2018-05-16T11:18:34.088Z,22.5
2018-05-16T11:19:36.091Z,22.4
2018-05-16T11:20:38.119Z,22.5
2018-05-16T11:21:40.115Z,22.7
2018-05-16T11:22:42.125Z,22.9
2018-05-16T11:23:44.136Z,23.4
2018-05-16T11:24:46.145Z,23.1
2018-05-16T11:25:48.165Z,23.4
2018-05-16T11:26:50.192Z,23.4
2018-05-16T11:27:52.480Z,22.9
2018-05-16T11:28:54.511Z,22.9
2018-05-16T11:29:56.808Z,22.7
2018-05-16T11:30:58.836Z,22.8
2018-05-16T11:32:00.843Z,22.6
2018-05-16T11:33:02.849Z,22.3
2018-05-16T11:34:04.860Z,22.6
2018-05-16T11:35:06.877Z,22.8
2018-05-16T11:36:08.882Z,22.8
2018-05-16T11:37:10.895Z,22.7
2018-05-16T11:38:12.895Z,22.5
2018-05-16T11:39:15.200Z,22.2
2018-05-16T11:40:17.211Z,22.6
2018-05-16T11:41:19.225Z,22.5
2018-05-16T11:42:21.563Z,22.9
2018-05-16T11:43:23.568Z,23
2018-05-16T11:44:25.589Z,23.1
2018-05-16T11:45:27.595Z,23.3
2018-05-16T11:46:29.592Z,23.5
2018-05-16T11:47:31.615Z,23.6
2018-05-16T11:48:33.625Z,23.5
2018-05-16T11:49:35.945Z,23.3
2018-05-16T11:50:38.244Z,23.2
2018-05-16T11:51:40.257Z,23
2018-05-16T11:52:42.276Z,23.3
2018-05-16T11:53:44.672Z,23.3
2018-05-16T11:54:46.678Z,23.3
2018-05-16T11:55:48.704Z,23.4
2018-05-16T11:56:50.707Z,24
2018-05-16T11:57:52.721Z,24.2
2018-05-16T11:58:54.726Z,24.3
2018-05-16T11:59:56.742Z,24
2018-05-16T12:00:58.756Z,23.5
2018-05-16T12:02:00.754Z,23.3
2018-05-16T12:03:02.776Z,23.3
2018-05-16T12:04:04.794Z,23.5
2018-05-16T12:05:06.823Z,23.5
2018-05-16T12:06:08.840Z,23.3
2018-05-16T12:07:10.943Z,23.5
2018-05-16T12:08:13.366Z,23.6
2018-05-16T12:09:15.455Z,23.6
2018-05-16T12:10:17.408Z,23.5
2018-05-16T12:11:19.436Z,23.6
2018-05-16T12:12:21.450Z,23.6
2018-05-16T12:13:23.459Z,23.4
2018-05-16T12:14:25.475Z,23.5
2018-05-16T12:15:27.484Z,23.4
2018-05-16T12:16:29.498Z,23.2
2018-05-16T12:17:31.520Z,23.3
2018-05-16T12:18:33.923Z,23.2
2018-05-16T12:19:35.957Z,22.9
2018-05-16T12:20:37.951Z,23.1
2018-05-16T12:21:40.048Z,23
2018-05-16T12:22:41.990Z,23.4
2018-05-16T12:23:44.906Z,23.3
2018-05-16T12:24:47.015Z,23.2
2018-05-16T12:25:49.030Z,23
2018-05-16T12:26:53.158Z,22.9
2018-05-16T12:27:55.803Z,22.7
2018-05-16T12:28:58.354Z,23
2018-05-16T12:30:00.625Z,22.9
2018-05-16T12:31:02.653Z,22.7
2018-05-16T12:32:04.654Z,22.9
2018-05-16T12:33:06.954Z,22.8
2018-05-16T12:34:09.262Z,22.7
2018-05-16T12:35:11.683Z,22.6
2018-05-16T12:36:14.077Z,22.4
2018-05-16T12:37:16.370Z,22.4
2018-05-16T12:38:18.786Z,22.4
2018-05-16T12:39:20.794Z,22.2
2018-05-16T12:40:22.883Z,22.2
2018-05-16T12:41:25.027Z,22.3
2018-05-16T12:42:27.412Z,22.1
2018-05-16T12:43:29.429Z,22.2
2018-05-16T12:44:31.469Z,22
2018-05-16T12:45:33.761Z,22.1
2018-05-16T12:46:36.164Z,22.2
2018-05-16T12:47:38.350Z,22.1
2018-05-16T12:48:40.384Z,21.9
2018-05-16T12:49:43.069Z,22
2018-05-16T12:50:45.078Z,21.9
2018-05-16T12:51:47.091Z,21.9
2018-05-16T12:52:49.397Z,21.9
2018-05-16T12:53:51.397Z,21.9
2018-05-16T12:54:53.807Z,22
2018-05-16T12:55:55.813Z,22
2018-05-16T12:56:57.856Z,21.9
2018-05-16T12:57:59.876Z,21.9
2018-05-16T12:59:02.174Z,22
2018-05-16T13:00:04.754Z,22
2018-05-16T13:01:06.754Z,22.1
2018-05-16T13:02:09.071Z,21.8
2018-05-16T13:03:11.114Z,21.6
2018-05-16T13:04:13.114Z,21.8
2018-05-16T13:05:16.221Z,21.7
2018-05-16T13:06:18.657Z,21.8
2018-05-16T13:07:20.977Z,21.6
2018-05-16T13:08:23.364Z,21.6
2018-05-16T13:09:25.388Z,21.5
2018-05-16T13:10:27.403Z,21.4
2018-05-16T13:11:29.411Z,21.3
2018-05-16T13:12:31.424Z,21.4
2018-05-16T13:13:33.434Z,21.6
2018-05-16T13:14:35.447Z,21.7
2018-05-16T13:15:37.752Z,21.4
2018-05-16T13:16:39.754Z,21.4
2018-05-16T13:17:41.842Z,21.3
2018-05-16T13:18:43.761Z,21.3
2018-05-16T13:19:45.774Z,21.5
2018-05-16T13:20:47.791Z,21.4
2018-05-16T13:21:50.176Z,21.3
2018-05-16T13:22:52.144Z,21.3
2018-05-16T13:23:54.154Z,21.3
2018-05-16T13:24:56.172Z,21.2
2018-05-16T13:25:58.190Z,21.4
2018-05-16T13:27:00.270Z,21.1
2018-05-16T13:28:02.217Z,21.1
2018-05-16T13:29:04.225Z,21.1
2018-05-16T13:30:06.526Z,21
2018-05-16T13:31:08.836Z,21.1
2018-05-16T13:32:10.846Z,21
2018-05-16T13:33:13.155Z,20.9
2018-05-16T13:34:15.455Z,20.9
2018-05-16T13:35:17.456Z,20.8
2018-05-16T13:36:20.016Z,20.9
2018-05-16T13:37:22.340Z,20.9
2018-05-16T13:38:24.359Z,20.7
2018-05-16T13:39:26.376Z,20.8
2018-05-16T13:40:28.661Z,20.7
2018-05-16T13:41:30.673Z,20.6
2018-05-16T13:42:32.697Z,20.6
2018-05-16T13:43:34.723Z,20.7
2018-05-16T13:44:36.734Z,20.6
2018-05-16T13:45:38.747Z,20.6
2018-05-16T13:46:41.951Z,20.7
2018-05-16T13:47:44.271Z,20.7
2018-05-16T13:48:46.276Z,20.6
2018-05-16T13:49:50.881Z,20.4
2018-05-16T13:50:53.480Z,20.4
2018-05-16T13:51:55.600Z,20.5